sensor_id;sensor_type;location;lat;lon;timestamp;pressure;altitude;pressure_sealevel;temperature;humidity
69247;BME280;56358;56.328;43.992;2024-01-30T00:00:29;101187.81;;;-3.30;80.93
69247;BME280;56358;56.328;43.992;2024-01-30T00:02:30;101183.44;;;-3.30;81.04
69247;BME280;56358;56.328;43.992;2024-01-30T00:04:30;101190.44;;;-3.30;80.92
69247;BME280;56358;56.328;43.992;2024-01-30T00:06:31;101175.56;;;-3.30;81.04
69247;BME280;56358;56.328;43.992;2024-01-30T00:08:31;101169.47;;;-3.30;80.69
69247;BME280;56358;56.328;43.992;2024-01-30T00:10:32;101166.84;;;-3.30;80.78
69247;BME280;56358;56.328;43.992;2024-01-30T00:12:32;101166.81;;;-3.29;80.80
69247;BME280;56358;56.328;43.992;2024-01-30T00:14:32;101172.09;;;-3.30;80.87
69247;BME280;56358;56.328;43.992;2024-01-30T00:16:33;101176.47;;;-3.32;81.03
69247;BME280;56358;56.328;43.992;2024-01-30T00:18:33;101158.94;;;-3.29;80.99
69247;BME280;56358;56.328;43.992;2024-01-30T00:20:33;101156.38;;;-3.32;80.86
69247;BME280;56358;56.328;43.992;2024-01-30T00:22:34;101154.63;;;-3.33;81.03
69247;BME280;56358;56.328;43.992;2024-01-30T00:24:34;101153.75;;;-3.35;81.06
69247;BME280;56358;56.328;43.992;2024-01-30T00:26:35;101154.66;;;-3.34;81.04
69247;BME280;56358;56.328;43.992;2024-01-30T00:28:35;101156.38;;;-3.33;81.15
69247;BME280;56358;56.328;43.992;2024-01-30T00:30:35;101158.09;;;-3.32;81.39
69247;BME280;56358;56.328;43.992;2024-01-30T00:32:36;101150.22;;;-3.31;81.19
69247;BME280;56358;56.328;43.992;2024-01-30T00:34:36;101148.47;;;-3.30;81.27
69247;BME280;56358;56.328;43.992;2024-01-30T00:36:36;101151.13;;;-3.32;81.29
69247;BME280;56358;56.328;43.992;2024-01-30T00:38:37;101138.88;;;-3.33;81.23
69247;BME280;56358;56.328;43.992;2024-01-30T00:40:37;101138.84;;;-3.30;81.28
69247;BME280;56358;56.328;43.992;2024-01-30T00:42:38;101137.09;;;-3.31;81.36
69247;BME280;56358;56.328;43.992;2024-01-30T00:44:38;101141.50;;;-3.31;81.23
69247;BME280;56358;56.328;43.992;2024-01-30T00:46:39;101136.25;;;-3.31;81.47
69247;BME280;56358;56.328;43.992;2024-01-30T00:48:39;101131.84;;;-3.31;81.56
69247;BME280;56358;56.328;43.992;2024-01-30T00:50:39;101143.25;;;-3.30;81.47
69247;BME280;56358;56.328;43.992;2024-01-30T00:52:40;101134.47;;;-3.28;81.53
69247;BME280;56358;56.328;43.992;2024-01-30T00:54:41;101138.81;;;-3.25;81.41
69247;BME280;56358;56.328;43.992;2024-01-30T00:56:42;101136.19;;;-3.25;81.50
69247;BME280;56358;56.328;43.992;2024-01-30T00:58:42;101140.56;;;-3.26;81.66
69247;BME280;56358;56.328;43.992;2024-01-30T01:00:43;101142.28;;;-3.23;81.65
69247;BME280;56358;56.328;43.992;2024-01-30T01:02:43;101151.88;;;-3.21;81.71
69247;BME280;56358;56.328;43.992;2024-01-30T01:04:44;101129.16;;;-3.20;81.48
69247;BME280;56358;56.328;43.992;2024-01-30T01:06:44;101130.88;;;-3.19;81.46
69247;BME280;56358;56.328;43.992;2024-01-30T01:08:45;101131.75;;;-3.18;81.51
69247;BME280;56358;56.328;43.992;2024-01-30T01:10:45;101131.72;;;-3.15;81.46
69247;BME280;56358;56.328;43.992;2024-01-30T01:12:45;101128.22;;;-3.16;81.39
69247;BME280;56358;56.328;43.992;2024-01-30T01:14:46;101124.69;;;-3.15;81.45
69247;BME280;56358;56.328;43.992;2024-01-30T01:16:46;101124.75;;;-3.18;81.70
69247;BME280;56358;56.328;43.992;2024-01-30T01:18:47;101124.69;;;-3.15;81.58
69247;BME280;56358;56.328;43.992;2024-01-30T01:20:47;101123.88;;;-3.18;81.74
69247;BME280;56358;56.328;43.992;2024-01-30T01:22:47;101122.97;;;-3.17;81.55
69247;BME280;56358;56.328;43.992;2024-01-30T01:24:48;101124.75;;;-3.18;81.64
69247;BME280;56358;56.328;43.992;2024-01-30T01:26:48;101123.84;;;-3.15;81.83
69247;BME280;56358;56.328;43.992;2024-01-30T01:28:49;101122.09;;;-3.13;81.71
69247;BME280;56358;56.328;43.992;2024-01-30T01:30:49;101117.72;;;-3.14;81.80
69247;BME280;56358;56.328;43.992;2024-01-30T01:32:50;101128.16;;;-3.10;81.95
69247;BME280;56358;56.328;43.992;2024-01-30T01:34:54;101109.78;;;-3.10;81.86
69247;BME280;56358;56.328;43.992;2024-01-30T01:36:55;101109.78;;;-3.07;81.78
69247;BME280;56358;56.328;43.992;2024-01-30T01:38:55;101116.72;;;-3.06;81.89
69247;BME280;56358;56.328;43.992;2024-01-30T01:40:56;101107.97;;;-3.03;81.88
69247;BME280;56358;56.328;43.992;2024-01-30T01:42:56;101107.09;;;-3.02;81.90
69247;BME280;56358;56.328;43.992;2024-01-30T01:44:57;101108.81;;;-2.99;81.92
69247;BME280;56358;56.328;43.992;2024-01-30T01:46:57;101110.56;;;-3.01;81.88
69247;BME280;56358;56.328;43.992;2024-01-30T01:48:57;101106.19;;;-2.99;81.91
69247;BME280;56358;56.328;43.992;2024-01-30T01:50:58;101101.75;;;-2.97;81.81
69247;BME280;56358;56.328;43.992;2024-01-30T01:52:59;101096.50;;;-2.97;81.89
69247;BME280;56358;56.328;43.992;2024-01-30T01:54:59;101094.78;;;-2.97;81.90
69247;BME280;56358;56.328;43.992;2024-01-30T01:57:00;101106.13;;;-2.96;81.98
69247;BME280;56358;56.328;43.992;2024-01-30T01:59:04;101092.09;;;-2.94;81.84
69247;BME280;56358;56.328;43.992;2024-01-30T02:01:05;101094.72;;;-2.94;81.88
69247;BME280;56358;56.328;43.992;2024-01-30T02:03:05;101099.97;;;-2.92;81.95
69247;BME280;56358;56.328;43.992;2024-01-30T02:05:06;101098.19;;;-2.90;82.09
69247;BME280;56358;56.328;43.992;2024-01-30T02:07:06;101096.44;;;-2.90;82.05
69247;BME280;56358;56.328;43.992;2024-01-30T02:09:07;101099.03;;;-2.87;81.86
69247;BME280;56358;56.328;43.992;2024-01-30T02:11:09;101087.66;;;-2.87;81.87
69247;BME280;56358;56.328;43.992;2024-01-30T02:13:13;101090.28;;;-2.87;82.06
69247;BME280;56358;56.328;43.992;2024-01-30T02:15:13;101090.22;;;-2.84;82.00
69247;BME280;56358;56.328;43.992;2024-01-30T02:17:15;101093.75;;;-2.83;81.91
69247;BME280;56358;56.328;43.992;2024-01-30T02:19:15;101093.75;;;-2.83;82.04
69247;BME280;56358;56.328;43.992;2024-01-30T02:21:16;101090.25;;;-2.82;81.98
69247;BME280;56358;56.328;43.992;2024-01-30T02:23:16;101095.50;;;-2.82;82.14
69247;BME280;56358;56.328;43.992;2024-01-30T02:25:17;101094.56;;;-2.81;82.29
69247;BME280;56358;56.328;43.992;2024-01-30T02:27:18;101091.94;;;-2.81;82.29
69247;BME280;56358;56.328;43.992;2024-01-30T02:29:19;101097.19;;;-2.78;82.25
69247;BME280;56358;56.328;43.992;2024-01-30T02:31:19;101097.19;;;-2.78;82.18
69247;BME280;56358;56.328;43.992;2024-01-30T02:33:19;101091.03;;;-2.76;82.14
69247;BME280;56358;56.328;43.992;2024-01-30T02:35:22;101094.47;;;-2.72;82.25
69247;BME280;56358;56.328;43.992;2024-01-30T02:37:22;101085.69;;;-2.71;82.31
69247;BME280;56358;56.328;43.992;2024-01-30T02:39:22;101101.44;;;-2.71;82.14
69247;BME280;56358;56.328;43.992;2024-01-30T02:41:23;101097.06;;;-2.71;82.30
69247;BME280;56358;56.328;43.992;2024-01-30T02:43:23;101098.81;;;-2.70;82.32
69247;BME280;56358;56.328;43.992;2024-01-30T02:45:24;101099.63;;;-2.66;82.15
69247;BME280;56358;56.328;43.992;2024-01-30T02:47:24;101101.41;;;-2.66;82.20
69247;BME280;56358;56.328;43.992;2024-01-30T02:49:25;101098.75;;;-2.65;82.56
69247;BME280;56358;56.328;43.992;2024-01-30T02:51:25;101089.97;;;-2.62;82.37
69247;BME280;56358;56.328;43.992;2024-01-30T02:53:26;101096.97;;;-2.63;82.48
69247;BME280;56358;56.328;43.992;2024-01-30T02:55:26;101092.56;;;-2.61;82.39
69247;BME280;56358;56.328;43.992;2024-01-30T02:57:26;101083.81;;;-2.60;82.49
69247;BME280;56358;56.328;43.992;2024-01-30T02:59:27;101090.78;;;-2.59;82.25
69247;BME280;56358;56.328;43.992;2024-01-30T03:01:27;101089.91;;;-2.58;82.26
69247;BME280;56358;56.328;43.992;2024-01-30T03:03:27;101083.78;;;-2.58;82.50
69247;BME280;56358;56.328;43.992;2024-01-30T03:05:28;101084.59;;;-2.53;82.48
69247;BME280;56358;56.328;43.992;2024-01-30T03:07:28;101091.56;;;-2.52;82.41
69247;BME280;56358;56.328;43.992;2024-01-30T03:09:29;101077.59;;;-2.53;82.57
69247;BME280;56358;56.328;43.992;2024-01-30T03:11:29;101081.06;;;-2.50;82.55
69247;BME280;56358;56.328;43.992;2024-01-30T03:13:29;101081.03;;;-2.49;82.53
69247;BME280;56358;56.328;43.992;2024-01-30T03:15:30;101081.00;;;-2.47;82.78
69247;BME280;56358;56.328;43.992;2024-01-30T03:17:30;101077.50;;;-2.46;82.65
69247;BME280;56358;56.328;43.992;2024-01-30T03:19:30;101082.78;;;-2.49;82.65
69247;BME280;56358;56.328;43.992;2024-01-30T03:21:31;101089.72;;;-2.44;82.66
69247;BME280;56358;56.328;43.992;2024-01-30T03:23:31;101094.03;;;-2.40;82.73
69247;BME280;56358;56.328;43.992;2024-01-30T03:25:32;101081.75;;;-2.39;82.60
69247;BME280;56358;56.328;43.992;2024-01-30T03:27:32;101082.59;;;-2.36;82.31
69247;BME280;56358;56.328;43.992;2024-01-30T03:29:33;101079.13;;;-2.38;82.67
69247;BME280;56358;56.328;43.992;2024-01-30T03:31:33;101080.81;;;-2.35;82.59
69247;BME280;56358;56.328;43.992;2024-01-30T03:33:33;101076.47;;;-2.36;82.72
69247;BME280;56358;56.328;43.992;2024-01-30T03:35:34;101079.09;;;-2.36;82.70
69247;BME280;56358;56.328;43.992;2024-01-30T03:37:34;101072.97;;;-2.37;82.79
69247;BME280;56358;56.328;43.992;2024-01-30T03:39:35;101075.53;;;-2.33;82.82
69247;BME280;56358;56.328;43.992;2024-01-30T03:41:36;101080.78;;;-2.33;82.79
69247;BME280;56358;56.328;43.992;2024-01-30T03:43:37;101091.31;;;-2.33;82.96
69247;BME280;56358;56.328;43.992;2024-01-30T03:45:37;101079.84;;;-2.29;82.68
69247;BME280;56358;56.328;43.992;2024-01-30T03:47:37;101075.50;;;-2.29;82.96
69247;BME280;56358;56.328;43.992;2024-01-30T03:49:38;101077.22;;;-2.28;82.85
69247;BME280;56358;56.328;43.992;2024-01-30T03:51:38;101080.72;;;-2.27;83.02
69247;BME280;56358;56.328;43.992;2024-01-30T03:53:39;101078.03;;;-2.24;82.94
69247;BME280;56358;56.328;43.992;2024-01-30T03:55:39;101072.75;;;-2.23;82.96
69247;BME280;56358;56.328;43.992;2024-01-30T03:57:39;101068.38;;;-2.22;83.04
69247;BME280;56358;56.328;43.992;2024-01-30T03:59:41;101055.25;;;-2.22;83.07
69247;BME280;56358;56.328;43.992;2024-01-30T04:01:42;101073.59;;;-2.19;83.09
69247;BME280;56358;56.328;43.992;2024-01-30T04:03:42;101062.16;;;-2.16;83.03
69247;BME280;56358;56.328;43.992;2024-01-30T04:05:44;101066.56;;;-2.17;82.92
69247;BME280;56358;56.328;43.992;2024-01-30T04:07:45;101059.50;;;-2.15;83.01
69247;BME280;56358;56.328;43.992;2024-01-30T04:09:45;101068.22;;;-2.11;83.02
69247;BME280;56358;56.328;43.992;2024-01-30T04:11:45;101062.94;;;-2.10;82.98
69247;BME280;56358;56.328;43.992;2024-01-30T04:13:46;101062.91;;;-2.08;83.11
69247;BME280;56358;56.328;43.992;2024-01-30T04:15:48;101054.19;;;-2.12;83.11
69247;BME280;56358;56.328;43.992;2024-01-30T04:17:48;101055.06;;;-2.10;83.28
69247;BME280;56358;56.328;43.992;2024-01-30T04:19:49;101057.59;;;-2.05;83.16
69247;BME280;56358;56.328;43.992;2024-01-30T04:21:49;101056.69;;;-2.04;83.02
69247;BME280;56358;56.328;43.992;2024-01-30T04:23:50;101055.75;;;-2.00;83.17
69247;BME280;56358;56.328;43.992;2024-01-30T04:25:51;101061.00;;;-2.00;83.17
69247;BME280;56358;56.328;43.992;2024-01-30T04:27:51;101066.22;;;-1.98;83.23
69247;BME280;56358;56.328;43.992;2024-01-30T04:29:51;101066.22;;;-1.95;83.17
69247;BME280;56358;56.328;43.992;2024-01-30T04:31:52;101060.03;;;-1.93;83.44
69247;BME280;56358;56.328;43.992;2024-01-30T04:33:52;101066.09;;;-1.89;83.38
69247;BME280;56358;56.328;43.992;2024-01-30T04:35:52;101068.69;;;-1.88;83.57
69247;BME280;56358;56.328;43.992;2024-01-30T04:37:53;101066.00;;;-1.83;83.42
69247;BME280;56358;56.328;43.992;2024-01-30T04:39:53;101068.56;;;-1.80;83.49
69247;BME280;56358;56.328;43.992;2024-01-30T04:41:54;101065.88;;;-1.75;83.55
69247;BME280;56358;56.328;43.992;2024-01-30T04:43:54;101058.78;;;-1.72;83.46
69247;BME280;56358;56.328;43.992;2024-01-30T04:45:55;101068.34;;;-1.66;83.43
69247;BME280;56358;56.328;43.992;2024-01-30T04:47:55;101060.38;;;-1.63;83.55
69247;BME280;56358;56.328;43.992;2024-01-30T04:49:55;101066.47;;;-1.61;83.69
69247;BME280;56358;56.328;43.992;2024-01-30T04:51:56;101078.69;;;-1.58;83.78
69247;BME280;56358;56.328;43.992;2024-01-30T04:53:56;101063.78;;;-1.56;83.83
69247;BME280;56358;56.328;43.992;2024-01-30T04:55:57;101069.84;;;-1.54;84.04
69247;BME280;56358;56.328;43.992;2024-01-30T04:57:57;101063.66;;;-1.50;84.03
69247;BME280;56358;56.328;43.992;2024-01-30T04:59:57;101062.72;;;-1.47;83.99
69247;BME280;56358;56.328;43.992;2024-01-30T05:01:58;101056.53;;;-1.45;84.08
69247;BME280;56358;56.328;43.992;2024-01-30T05:03:58;101064.41;;;-1.45;84.22
69247;BME280;56358;56.328;43.992;2024-01-30T05:05:59;101059.13;;;-1.42;84.00
69247;BME280;56358;56.328;43.992;2024-01-30T05:07:59;101072.22;;;-1.39;84.00
69247;BME280;56358;56.328;43.992;2024-01-30T05:09:59;101061.66;;;-1.37;84.00
69247;BME280;56358;56.328;43.992;2024-01-30T05:12:00;101061.66;;;-1.37;83.99
69247;BME280;56358;56.328;43.992;2024-01-30T05:14:00;101059.00;;;-1.36;83.79
69247;BME280;56358;56.328;43.992;2024-01-30T05:16:01;101057.28;;;-1.37;84.08
69247;BME280;56358;56.328;43.992;2024-01-30T05:18:02;101054.63;;;-1.35;84.10
69247;BME280;56358;56.328;43.992;2024-01-30T05:20:02;101052.88;;;-1.36;84.39
69247;BME280;56358;56.328;43.992;2024-01-30T05:22:04;101051.94;;;-1.33;84.31
69247;BME280;56358;56.328;43.992;2024-01-30T05:24:05;101054.50;;;-1.30;84.43
69247;BME280;56358;56.328;43.992;2024-01-30T05:26:05;101068.56;;;-1.30;84.32
69247;BME280;56358;56.328;43.992;2024-01-30T05:28:06;101058.78;;;-1.25;84.47
69247;BME280;56358;56.328;43.992;2024-01-30T05:30:06;101064.00;;;-1.22;84.00
69247;BME280;56358;56.328;43.992;2024-01-30T05:32:07;101064.00;;;-1.22;84.02
69247;BME280;56358;56.328;43.992;2024-01-30T05:34:07;101068.34;;;-1.21;84.09
69247;BME280;56358;56.328;43.992;2024-01-30T05:36:11;101068.31;;;-1.17;84.07
69247;BME280;56358;56.328;43.992;2024-01-30T05:38:12;101075.31;;;-1.18;84.15
69247;BME280;56358;56.328;43.992;2024-01-30T05:40:12;101073.50;;;-1.14;84.24
69247;BME280;56358;56.328;43.992;2024-01-30T05:42:13;101069.09;;;-1.12;84.44
69247;BME280;56358;56.328;43.992;2024-01-30T05:44:15;101068.97;;;-1.08;84.37
69247;BME280;56358;56.328;43.992;2024-01-30T05:46:15;101068.81;;;-1.00;83.98
69247;BME280;56358;56.328;43.992;2024-01-30T05:48:15;101082.00;;;-1.00;83.77
69247;BME280;56358;56.328;43.992;2024-01-30T05:50:16;101067.94;;;-0.99;83.65
69247;BME280;56358;56.328;43.992;2024-01-30T05:52:16;101061.72;;;-0.95;83.57
69247;BME280;56358;56.328;43.992;2024-01-30T05:54:17;101071.31;;;-0.94;83.88
69247;BME280;56358;56.328;43.992;2024-01-30T05:56:18;101074.78;;;-0.92;83.93
69247;BME280;56358;56.328;43.992;2024-01-30T05:58:18;101085.22;;;-0.87;83.81
69247;BME280;56358;56.328;43.992;2024-01-30T06:00:18;101081.66;;;-0.85;83.86
69247;BME280;56358;56.328;43.992;2024-01-30T06:02:19;101078.97;;;-0.81;83.35
69247;BME280;56358;56.328;43.992;2024-01-30T06:04:19;101081.66;;;-0.83;83.33
69247;BME280;56358;56.328;43.992;2024-01-30T06:06:19;101083.44;;;-0.85;83.42
69247;BME280;56358;56.328;43.992;2024-01-30T06:08:20;101088.69;;;-0.85;83.47
69247;BME280;56358;56.328;43.992;2024-01-30T06:10:20;101083.41;;;-0.83;83.47
69247;BME280;56358;56.328;43.992;2024-01-30T06:12:21;101081.66;;;-0.85;83.65
69247;BME280;56358;56.328;43.992;2024-01-30T06:14:21;101080.81;;;-0.85;83.61
69247;BME280;56358;56.328;43.992;2024-01-30T06:16:21;101092.19;;;-0.85;83.74
69247;BME280;56358;56.328;43.992;2024-01-30T06:18:22;101087.72;;;-0.81;83.80
69247;BME280;56358;56.328;43.992;2024-01-30T06:20:23;101085.03;;;-0.76;83.90
69247;BME280;56358;56.328;43.992;2024-01-30T06:22:23;101086.66;;;-0.71;83.77
69247;BME280;56358;56.328;43.992;2024-01-30T06:24:24;101092.72;;;-0.69;83.63
69247;BME280;56358;56.328;43.992;2024-01-30T06:26:24;101094.44;;;-0.66;83.47
69247;BME280;56358;56.328;43.992;2024-01-30T06:28:24;101094.38;;;-0.63;83.30
69247;BME280;56358;56.328;43.992;2024-01-30T06:30:25;101098.72;;;-0.62;83.28
69247;BME280;56358;56.328;43.992;2024-01-30T06:32:25;101092.56;;;-0.61;83.28
69247;BME280;56358;56.328;43.992;2024-01-30T06:34:25;101103.09;;;-0.61;83.19
69247;BME280;56358;56.328;43.992;2024-01-30T06:36:29;101125.06;;;-0.62;83.24
69247;BME280;56358;56.328;43.992;2024-01-30T06:38:30;101103.97;;;-0.60;83.36
69247;BME280;56358;56.328;43.992;2024-01-30T06:40:30;101109.22;;;-0.59;83.37
69247;BME280;56358;56.328;43.992;2024-01-30T06:42:31;101105.66;;;-0.58;83.52
69247;BME280;56358;56.328;43.992;2024-01-30T06:44:31;101119.69;;;-0.56;83.56
69247;BME280;56358;56.328;43.992;2024-01-30T06:46:32;101112.59;;;-0.52;83.70
69247;BME280;56358;56.328;43.992;2024-01-30T06:48:32;101119.53;;;-0.48;83.36
69247;BME280;56358;56.328;43.992;2024-01-30T06:50:33;101109.88;;;-0.49;83.15
69247;BME280;56358;56.328;43.992;2024-01-30T06:52:33;101109.84;;;-0.47;83.33
69247;BME280;56358;56.328;43.992;2024-01-30T06:54:34;101115.88;;;-0.42;83.25
69247;BME280;56358;56.328;43.992;2024-01-30T06:56:34;101119.41;;;-0.43;83.37
69247;BME280;56358;56.328;43.992;2024-01-30T06:58:34;101127.19;;;-0.37;83.46
69247;BME280;56358;56.328;43.992;2024-01-30T07:00:35;101121.00;;;-0.35;83.34
69247;BME280;56358;56.328;43.992;2024-01-30T07:02:36;101113.00;;;-0.31;83.50
69247;BME280;56358;56.328;43.992;2024-01-30T07:04:36;101103.31;;;-0.29;83.01
69247;BME280;56358;56.328;43.992;2024-01-30T07:06:41;101117.25;;;-0.26;82.95
69247;BME280;56358;56.328;43.992;2024-01-30T07:08:41;101101.50;;;-0.27;82.86
69247;BME280;56358;56.328;43.992;2024-01-30T07:10:41;101110.97;;;-0.19;82.96
69247;BME280;56358;56.328;43.992;2024-01-30T07:12:42;101124.16;;;-0.19;82.49
69247;BME280;56358;56.328;43.992;2024-01-30T07:14:42;101123.22;;;-0.16;82.70
69247;BME280;56358;56.328;43.992;2024-01-30T07:16:42;101124.09;;;-0.17;82.79
69247;BME280;56358;56.328;43.992;2024-01-30T07:18:43;101127.50;;;-0.13;82.79
69247;BME280;56358;56.328;43.992;2024-01-30T07:20:43;101122.22;;;-0.12;82.30
69247;BME280;56358;56.328;43.992;2024-01-30T07:22:47;101131.00;;;-0.11;82.33
69247;BME280;56358;56.328;43.992;2024-01-30T07:24:47;101138.91;;;-0.11;82.42
69247;BME280;56358;56.328;43.992;2024-01-30T07:26:49;101143.25;;;-0.09;82.52
69247;BME280;56358;56.328;43.992;2024-01-30T07:28:49;101144.22;;;-0.13;82.48
69247;BME280;56358;56.328;43.992;2024-01-30T07:30:50;101140.56;;;-0.07;82.74
69247;BME280;56358;56.328;43.992;2024-01-30T07:32:50;101141.50;;;-0.10;82.75
69247;BME280;56358;56.328;43.992;2024-01-30T07:34:51;101149.31;;;-0.07;82.76
69247;BME280;56358;56.328;43.992;2024-01-30T07:36:51;101134.41;;;-0.06;82.83
69247;BME280;56358;56.328;43.992;2024-01-30T07:38:52;101130.03;;;-0.07;82.60
69247;BME280;56358;56.328;43.992;2024-01-30T07:40:54;101136.06;;;-0.02;82.72
69247;BME280;56358;56.328;43.992;2024-01-30T07:42:54;101143.88;;;0.01;82.90
69247;BME280;56358;56.328;43.992;2024-01-30T07:44:55;101142.09;;;0.03;82.78
69247;BME280;56358;56.328;43.992;2024-01-30T07:46:55;101138.47;;;0.07;82.53
69247;BME280;56358;56.328;43.992;2024-01-30T07:48:57;101139.25;;;0.12;82.81
69247;BME280;56358;56.328;43.992;2024-01-30T07:50:57;101130.22;;;0.21;82.69
69247;BME280;56358;56.328;43.992;2024-01-30T07:52:59;101138.09;;;0.24;82.42
69247;BME280;56358;56.328;43.992;2024-01-30T07:54:59;101145.88;;;0.29;82.06
69247;BME280;56358;56.328;43.992;2024-01-30T07:57:00;101151.94;;;0.32;81.84
69247;BME280;56358;56.328;43.992;2024-01-30T07:59:00;101144.94;;;0.31;81.69
69247;BME280;56358;56.328;43.992;2024-01-30T08:01:01;101154.53;;;0.34;81.48
69247;BME280;56358;56.328;43.992;2024-01-30T08:03:01;101158.91;;;0.35;81.70
69247;BME280;56358;56.328;43.992;2024-01-30T08:05:02;101169.38;;;0.38;81.59
69247;BME280;56358;56.328;43.992;2024-01-30T08:07:03;101160.63;;;0.36;81.53
69247;BME280;56358;56.328;43.992;2024-01-30T08:09:03;101171.25;;;0.33;81.64
69247;BME280;56358;56.328;43.992;2024-01-30T08:11:04;101165.16;;;0.31;81.78
69247;BME280;56358;56.328;43.992;2024-01-30T08:13:05;101173.84;;;0.35;81.92
69247;BME280;56358;56.328;43.992;2024-01-30T08:15:06;101159.81;;;0.34;81.68
69247;BME280;56358;56.328;43.992;2024-01-30T08:17:06;101164.06;;;0.40;81.79
69247;BME280;56358;56.328;43.992;2024-01-30T08:19:07;101161.44;;;0.40;81.92
69247;BME280;56358;56.328;43.992;2024-01-30T08:21:08;101165.72;;;0.44;81.77
69247;BME280;56358;56.328;43.992;2024-01-30T08:23:09;101156.06;;;0.44;81.74
69247;BME280;56358;56.328;43.992;2024-01-30T08:25:10;101157.75;;;0.47;81.61
69247;BME280;56358;56.328;43.992;2024-01-30T08:27:11;101148.91;;;0.48;81.77
69247;BME280;56358;56.328;43.992;2024-01-30T08:29:12;101132.13;;;0.50;81.61
69247;BME280;56358;56.328;43.992;2024-01-30T08:31:12;101142.63;;;0.54;81.48
69247;BME280;56358;56.328;43.992;2024-01-30T08:33:13;101133.75;;;0.56;81.33
69247;BME280;56358;56.328;43.992;2024-01-30T08:35:13;101131.94;;;0.58;81.62
69247;BME280;56358;56.328;43.992;2024-01-30T08:37:16;101136.28;;;0.61;81.17
69247;BME280;56358;56.328;43.992;2024-01-30T08:39:16;101134.44;;;0.63;81.22
69247;BME280;56358;56.328;43.992;2024-01-30T08:41:17;101137.94;;;0.65;81.30
69247;BME280;56358;56.328;43.992;2024-01-30T08:43:17;101147.50;;;0.69;81.08
69247;BME280;56358;56.328;43.992;2024-01-30T08:45:18;101148.34;;;0.70;81.03
69247;BME280;56358;56.328;43.992;2024-01-30T08:47:19;101153.66;;;0.68;80.76
69247;BME280;56358;56.328;43.992;2024-01-30T08:49:19;101151.03;;;0.68;80.73
69247;BME280;56358;56.328;43.992;2024-01-30T08:51:20;101147.53;;;0.68;80.88
69247;BME280;56358;56.328;43.992;2024-01-30T08:53:20;101153.72;;;0.66;81.02
69247;BME280;56358;56.328;43.992;2024-01-30T08:55:21;101158.13;;;0.66;81.17
69247;BME280;56358;56.328;43.992;2024-01-30T08:57:21;101156.44;;;0.63;81.01
69247;BME280;56358;56.328;43.992;2024-01-30T08:59:22;101137.94;;;0.65;81.22
69247;BME280;56358;56.328;43.992;2024-01-30T09:01:22;101145.00;;;0.63;81.17
69247;BME280;56358;56.328;43.992;2024-01-30T09:03:22;101141.47;;;0.64;81.12
69247;BME280;56358;56.328;43.992;2024-01-30T09:05:23;101146.69;;;0.65;80.97
69247;BME280;56358;56.328;43.992;2024-01-30T09:07:23;101144.94;;;0.66;80.82
69247;BME280;56358;56.328;43.992;2024-01-30T09:09:23;101151.88;;;0.70;80.72
69247;BME280;56358;56.328;43.992;2024-01-30T09:11:24;101150.94;;;0.73;80.40
69247;BME280;56358;56.328;43.992;2024-01-30T09:13:24;101154.47;;;0.72;80.49
69247;BME280;56358;56.328;43.992;2024-01-30T09:15:24;101152.66;;;0.74;80.42
69247;BME280;56358;56.328;43.992;2024-01-30T09:17:25;101152.63;;;0.75;80.44
69247;BME280;56358;56.328;43.992;2024-01-30T09:19:25;101151.75;;;0.75;80.37
69247;BME280;56358;56.328;43.992;2024-01-30T09:21:25;101157.84;;;0.77;80.40
69247;BME280;56358;56.328;43.992;2024-01-30T09:23:29;101164.88;;;0.78;80.29
69247;BME280;56358;56.328;43.992;2024-01-30T09:25:29;101160.50;;;0.77;80.24
69247;BME280;56358;56.328;43.992;2024-01-30T09:27:30;101162.25;;;0.76;80.11
69247;BME280;56358;56.328;43.992;2024-01-30T09:29:31;101157.75;;;0.80;80.04
69247;BME280;56358;56.328;43.992;2024-01-30T09:31:33;101155.09;;;0.81;79.98
69247;BME280;56358;56.328;43.992;2024-01-30T09:33:33;101162.94;;;0.85;79.66
69247;BME280;56358;56.328;43.992;2024-01-30T09:35:33;101166.47;;;0.83;79.44
69247;BME280;56358;56.328;43.992;2024-01-30T09:37:34;101163.03;;;0.80;79.64
69247;BME280;56358;56.328;43.992;2024-01-30T09:39:34;101167.44;;;0.81;79.58
69247;BME280;56358;56.328;43.992;2024-01-30T09:41:39;101169.13;;;0.83;79.21
69247;BME280;56358;56.328;43.992;2024-01-30T09:43:47;101177.00;;;0.85;79.17
69247;BME280;56358;56.328;43.992;2024-01-30T09:45:51;101182.13;;;0.90;79.22
69247;BME280;56358;56.328;43.992;2024-01-30T09:47:52;101184.63;;;0.96;78.66
69247;BME280;56358;56.328;43.992;2024-01-30T09:49:52;101184.63;;;0.96;78.67
69247;BME280;56358;56.328;43.992;2024-01-30T09:51:53;101184.69;;;0.94;78.38
69247;BME280;56358;56.328;43.992;2024-01-30T09:53:54;101172.28;;;0.96;78.33
69247;BME280;56358;56.328;43.992;2024-01-30T09:55:55;101176.66;;;0.97;78.17
69247;BME280;56358;56.328;43.992;2024-01-30T09:57:56;101179.31;;;0.97;78.53
69247;BME280;56358;56.328;43.992;2024-01-30T09:59:56;101173.03;;;1.02;78.19
69247;BME280;56358;56.328;43.992;2024-01-30T10:01:57;101167.69;;;1.05;77.94
69247;BME280;56358;56.328;43.992;2024-01-30T10:03:57;101175.59;;;1.05;77.88
69247;BME280;56358;56.328;43.992;2024-01-30T10:05:57;101179.81;;;1.12;77.83
69247;BME280;56358;56.328;43.992;2024-01-30T10:07:58;101175.31;;;1.15;77.44
69247;BME280;56358;56.328;43.992;2024-01-30T10:09:59;101182.19;;;1.21;77.62
69247;BME280;56358;56.328;43.992;2024-01-30T10:11:59;101187.38;;;1.24;77.46
69247;BME280;56358;56.328;43.992;2024-01-30T10:14:00;101186.31;;;1.31;76.82
69247;BME280;56358;56.328;43.992;2024-01-30T10:16:00;101189.75;;;1.33;76.86
69247;BME280;56358;56.328;43.992;2024-01-30T10:18:03;101192.31;;;1.37;76.56
69247;BME280;56358;56.328;43.992;2024-01-30T10:20:06;101189.50;;;1.43;76.31
69247;BME280;56358;56.328;43.992;2024-01-30T10:22:08;101195.63;;;1.45;75.88
69247;BME280;56358;56.328;43.992;2024-01-30T10:24:09;101193.78;;;1.47;75.72